RJAH METAR and TAF | Updated Today

RJAH METAR

Hyakuri Airport

Observation time: 48 min. ago

RJAH 251900Z VRB01KT 9999 MIFG FEW025 SCT/// 14/14 Q1011

Need help? Read our tutorial on how to read METARs or read the parsed version below.

Hyakuri Airport (RJAH) METAR

  • Weather conditions on Wed, 25 May 2022 19:00:00 +0000 (48 min. ago):
  • Present conditions: Shallow fog
  • Clouds: A few at 762 meters; scattered
  • Visibility: Greater than 10 km
  • Wind: Variable at 1 knots
  • Temperature: 14 celsius
  • Dew point: 14 celsius
  • Pressure: 1011 millibars
  • Remarks: None


Useful to know...

RJAH TAF

Hyakuri Airport

TAF RJAH 251705Z 2518/2700 12004KT 9999 FEW020 BECMG 2522/2600 18010KT TEMPO 2618/2700 4000 -SHRA BR FEW004 BKN008
Observation time: 2:43 hr. ago
Need help? Read our tutorial on how to read TAFs or read the parsed version below.

Parsed version of TAF for Hyakuri Airport (RJAH)

  • From 25 May at 18:00 UTC, to day 27 of the month at 00:00 UTC
  • Clouds: A few at 610 meters
  • Visibility: Greater than 10 km
  • Wind: 120 degrees at 4
  • Expected to arise soon, from 25 May at 22:00 UTC, to day 26 of the month at 00:00 UTC
  • Wind: 180 degrees at 10
  • Expected to arise temporarily, from 26 May at 18:00 UTC, to day 27 of the month at 00:00 UTC
  • Clouds: A few at 122 meters; broken sky at 244 meters
  • Visibility: 4000 meters
  • Other: Light showers of rain; mist